Time;durP1;ratioP1;P1;durP2;ratioP2;P2;SDS_P1;SDS_P2;PMS_P1;PMS_P2;Temp;Humidity;BMP_temperature;BMP_pressure;BME280_temperature;BME280_humidity;BME280_pressure;Samples;Min_cycle;Max_cycle;Signal;HPM_P1;HPM_P2
2023/02/23 00:00:32;;;;;;;5.60;4.40;;;10.60;99.90;;;;;;5094829;28;20426;-60
2023/02/23 00:03:01;;;;;;;5.30;3.60;;;10.70;99.90;;;;;;5096122;28;20410;-60
2023/02/23 00:05:32;;;;;;;5.95;4.43;;;10.60;99.90;;;;;;5096384;28;20524;-60
2023/02/23 00:07:59;;;;;;;6.27;5.30;;;10.70;99.90;;;;;;5096987;28;20517;-60
2023/02/23 00:10:29;;;;;;;6.60;4.97;;;10.60;99.90;;;;;;5097572;28;20864;-62
2023/02/23 00:12:56;;;;;;;5.88;4.82;;;10.60;99.90;;;;;;5095939;28;20429;-60
2023/02/23 00:15:25;;;;;;;7.25;4.60;;;10.60;99.90;;;;;;5096936;28;20528;-61
2023/02/23 00:17:54;;;;;;;6.05;4.80;;;10.60;99.90;;;;;;5096822;28;20440;-60
2023/02/23 00:20:26;;;;;;;7.67;5.23;;;10.50;99.90;;;;;;5096665;28;20429;-61
2023/02/23 00:22:56;;;;;;;5.77;4.90;;;10.60;99.90;;;;;;5096706;28;20725;-60
2023/02/23 00:25:24;;;;;;;6.97;5.13;;;10.60;99.90;;;;;;5096765;28;20845;-60
2023/02/23 00:27:52;;;;;;;7.05;5.15;;;10.60;99.90;;;;;;5097248;28;20502;-60
2023/02/23 00:30:19;;;;;;;8.05;5.60;;;10.50;99.90;;;;;;5096883;28;20457;-60
2023/02/23 00:32:47;;;;;;;7.50;5.28;;;10.50;99.90;;;;;;5096540;28;20810;-60
2023/02/23 00:35:17;;;;;;;7.93;5.20;;;10.40;99.90;;;;;;5096648;28;20759;-60
2023/02/23 00:37:45;;;;;;;7.13;5.30;;;10.40;99.90;;;;;;5096756;28;20457;-60
2023/02/23 00:40:15;;;;;;;8.02;6.57;;;10.40;99.90;;;;;;5096318;28;20484;-59
2023/02/23 00:42:44;;;;;;;5.57;4.88;;;10.40;99.90;;;;;;5096110;28;20766;-59
2023/02/23 00:45:12;;;;;;;7.00;5.40;;;10.20;99.90;;;;;;5096313;28;20426;-59
2023/02/23 00:47:41;;;;;;;8.20;5.90;;;10.20;99.90;;;;;;5096018;28;20426;-60
2023/02/23 00:50:12;;;;;;;8.50;6.20;;;10.10;99.90;;;;;;5096159;28;20842;-59
2023/02/23 00:52:39;;;;;;;5.88;4.72;;;10.10;99.90;;;;;;5096180;28;20422;-59
2023/02/23 00:55:08;;;;;;;6.05;4.55;;;10.10;99.90;;;;;;5095646;28;21019;-59
2023/02/23 00:57:37;;;;;;;6.53;5.05;;;10.10;99.90;;;;;;5096077;28;20417;-60
2023/02/23 01:00:16;;;;;;;9.65;5.32;;;10.00;99.90;;;;;;5095530;28;20426;-60
2023/02/23 01:02:43;;;;;;;7.80;5.60;;;9.90;99.90;;;;;;5096041;28;20438;-60
2023/02/23 01:05:12;;;;;;;6.43;5.10;;;9.90;99.90;;;;;;5095700;28;20830;-60
2023/02/23 01:07:40;;;;;;;6.13;5.40;;;9.90;99.90;;;;;;5096163;28;20413;-60
2023/02/23 01:10:18;;;;;;;7.40;5.57;;;9.90;99.90;;;;;;5096181;28;20437;-60
2023/02/23 01:12:48;;;;;;;6.43;5.10;;;9.90;99.90;;;;;;5095957;28;20472;-59
2023/02/23 01:15:17;;;;;;;7.95;5.50;;;9.90;99.90;;;;;;5095621;28;20434;-61
2023/02/23 01:17:44;;;;;;;8.00;5.50;;;9.90;99.90;;;;;;5095964;28;20425;-60
2023/02/23 01:20:17;;;;;;;7.30;4.87;;;9.90;99.90;;;;;;5095677;28;20429;-59
2023/02/23 01:22:45;;;;;;;6.05;4.32;;;9.90;99.90;;;;;;5095651;28;20529;-59
2023/02/23 01:25:12;;;;;;;7.70;5.13;;;9.90;99.90;;;;;;5095635;28;20437;-58
2023/02/23 01:27:40;;;;;;;7.13;5.10;;;9.80;99.90;;;;;;5095484;28;20729;-59
2023/02/23 01:30:11;;;;;;;9.07;6.07;;;9.80;99.90;;;;;;5092905;28;20477;-60
2023/02/23 01:32:38;;;;;;;7.60;6.80;;;9.70;99.90;;;;;;5075718;28;20428;-60
2023/02/23 01:35:07;;;;;;;10.57;6.00;;;9.70;99.90;;;;;;5074738;28;20446;-59
2023/02/23 01:37:36;;;;;;;7.47;5.35;;;9.80;99.90;;;;;;5073739;28;20415;-59
2023/02/23 01:40:09;;;;;;;5.75;4.95;;;9.80;99.90;;;;;;5075410;28;20432;-59
2023/02/23 01:42:38;;;;;;;8.55;5.63;;;9.80;99.90;;;;;;5075235;28;20415;-59
2023/02/23 01:45:33;;;;;;;6.72;5.75;;;9.90;99.90;;;;;;5075169;28;20786;-59
2023/02/23 01:48:05;;;;;;;6.78;5.22;;;10.00;99.90;;;;;;5034805;28;20850;-59
2023/02/23 01:50:42;;;;;;;6.82;5.70;;;10.10;99.90;;;;;;5035139;28;20431;-58
2023/02/23 01:53:10;;;;;;;7.35;5.85;;;10.10;99.90;;;;;;5034742;28;20426;-58
2023/02/23 01:55:39;;;;;;;9.10;6.18;;;10.10;99.90;;;;;;5034084;28;20876;-59
2023/02/23 01:58:14;;;;;;;8.00;6.30;;;10.10;99.90;;;;;;5034907;28;20423;-59
2023/02/23 02:00:45;;;;;;;9.30;6.40;;;10.00;99.90;;;;;;5034483;28;20441;-57
2023/02/23 02:03:18;;;;;;;8.53;7.03;;;10.00;99.90;;;;;;5034085;28;20423;-58
2023/02/23 02:05:46;;;;;;;9.00;7.28;;;9.90;99.90;;;;;;5034642;28;20525;-59
2023/02/23 02:08:14;;;;;;;8.98;6.47;;;9.80;99.90;;;;;;5034516;28;20423;-58
2023/02/23 02:10:45;;;;;;;7.90;7.10;;;9.80;99.90;;;;;;5034759;28;20441;-59
2023/02/23 02:13:20;;;;;;;7.25;6.50;;;9.70;99.90;;;;;;5035080;28;20428;-58
2023/02/23 02:16:13;;;;;;;8.82;6.80;;;9.70;99.90;;;;;;5035038;28;20450;-59
2023/02/23 02:19:07;;;;;;;8.95;6.60;;;9.70;99.90;;;;;;5034351;28;20427;-59
2023/02/23 02:22:04;;;;;;;8.73;7.00;;;9.70;99.90;;;;;;5034478;28;20521;-59
2023/02/23 02:25:09;;;;;;;9.25;6.13;;;9.70;99.90;;;;;;5024433;28;20482;-60
2023/02/23 02:28:07;;;;;;;8.30;6.85;;;9.70;99.90;;;;;;5034659;28;20685;-59
2023/02/23 02:31:18;;;;;;;10.93;6.40;;;9.70;99.90;;;;;;5034575;28;20434;-59
2023/02/23 02:34:21;;;;;;;9.70;7.07;;;9.80;99.90;;;;;;5028823;28;20434;-59
2023/02/23 02:37:35;;;;;;;9.27;7.20;;;9.80;99.90;;;;;;5021390;28;20687;-59
2023/02/23 02:40:17;;;;;;;9.05;6.70;;;9.80;99.90;;;;;;4992578;28;20430;-59
2023/02/23 02:42:57;;;;;;;8.13;6.30;;;9.80;99.90;;;;;;4992322;28;20422;-59
2023/02/23 02:45:30;;;;;;;8.05;5.68;;;9.80;99.90;;;;;;5023114;28;20418;-59
2023/02/23 02:48:04;;;;;;;6.88;5.93;;;9.90;99.90;;;;;;5034565;28;20411;-59
2023/02/23 02:50:40;;;;;;;7.80;5.50;;;9.90;99.90;;;;;;5034222;28;20435;-61
2023/02/23 02:53:10;;;;;;;6.45;5.15;;;10.00;99.90;;;;;;5033486;28;20458;-58
2023/02/23 02:55:42;;;;;;;7.00;3.90;;;10.00;99.90;;;;;;5032952;28;20438;-59
2023/02/23 02:58:12;;;;;;;6.22;3.70;;;9.90;99.90;;;;;;5034524;28;20423;-58
2023/02/23 04:19:20;;;;;;;3.47;2.15;;;9.50;99.90;;;;;;5075364;28;20419;-57
2023/02/23 04:21:47;;;;;;;5.28;2.60;;;9.50;99.90;;;;;;5075399;28;20518;-58
2023/02/23 04:24:14;;;;;;;5.68;3.65;;;9.50;99.90;;;;;;5075433;28;20431;-57
2023/02/23 04:26:41;;;;;;;5.50;3.70;;;9.50;99.90;;;;;;5075420;28;20434;-57
2023/02/23 04:29:08;;;;;;;5.05;2.65;;;9.50;99.90;;;;;;5075006;28;20427;-58
2023/02/23 04:31:35;;;;;;;5.88;3.08;;;9.50;99.90;;;;;;5075289;28;20419;-58
2023/02/23 04:34:04;;;;;;;4.57;3.10;;;9.40;99.90;;;;;;5074820;28;20420;-55
2023/02/23 04:36:31;;;;;;;4.90;2.20;;;9.40;99.90;;;;;;5074967;28;20434;-57
2023/02/23 04:38:58;;;;;;;4.95;2.80;;;9.40;99.90;;;;;;5074499;28;20415;-57
2023/02/23 04:41:26;;;;;;;4.25;2.30;;;9.40;99.90;;;;;;5076200;28;20431;-58
2023/02/23 04:43:53;;;;;;;5.85;2.63;;;9.50;99.90;;;;;;5076104;28;20424;-58
2023/02/23 04:46:20;;;;;;;3.38;2.30;;;9.50;99.90;;;;;;5075945;28;20432;-58
2023/02/23 04:48:47;;;;;;;4.00;2.10;;;9.50;99.90;;;;;;5075285;28;20431;-58
2023/02/23 04:51:15;;;;;;;2.50;1.70;;;9.60;99.90;;;;;;5076524;28;20456;-60
2023/02/23 04:53:42;;;;;;;3.80;1.80;;;9.70;99.90;;;;;;5075981;28;20424;-57
2023/02/23 04:56:10;;;;;;;5.90;2.20;;;9.80;99.90;;;;;;5076407;28;20521;-58
2023/02/23 04:58:37;;;;;;;3.30;1.80;;;9.90;99.90;;;;;;5074680;28;20459;-58
2023/02/23 05:01:06;;;;;;;4.63;2.00;;;10.00;99.90;;;;;;5075985;28;20450;-58
2023/02/23 05:03:33;;;;;;;2.97;1.70;;;10.10;99.90;;;;;;5075502;28;20512;-58
2023/02/23 05:06:00;;;;;;;3.67;1.85;;;10.20;99.90;;;;;;5075033;28;20419;-59
2023/02/23 05:08:28;;;;;;;4.38;2.35;;;10.30;99.90;;;;;;5074553;28;20422;-58
2023/02/23 05:10:56;;;;;;;3.30;1.80;;;10.20;99.90;;;;;;5073988;28;20466;-58
2023/02/23 05:13:23;;;;;;;4.93;2.20;;;10.30;99.90;;;;;;5073919;28;20420;-58
2023/02/23 05:15:50;;;;;;;5.50;4.10;;;10.30;99.90;;;;;;5074290;28;20497;-58
2023/02/23 05:18:17;;;;;;;5.68;3.35;;;10.20;99.90;;;;;;5074023;28;20411;-58
2023/02/23 05:20:44;;;;;;;6.15;3.78;;;10.20;99.90;;;;;;5073985;28;20427;-58
2023/02/23 05:23:12;;;;;;;4.47;3.60;;;10.20;99.90;;;;;;5073608;28;20521;-57
2023/02/23 05:25:40;;;;;;;5.72;3.92;;;10.10;99.90;;;;;;5074369;28;20430;-57
2023/02/23 05:28:07;;;;;;;5.38;3.00;;;10.10;99.90;;;;;;5075128;28;20427;-57
2023/02/23 05:30:35;;;;;;;6.35;3.80;;;10.10;99.90;;;;;;5075210;28;20427;-58
2023/02/23 05:33:02;;;;;;;5.00;2.63;;;10.20;99.90;;;;;;5075525;28;20420;-58
2023/02/23 05:35:29;;;;;;;5.03;2.60;;;10.30;99.90;;;;;;5073692;28;20778;-58
2023/02/23 05:37:56;;;;;;;3.03;1.70;;;10.30;99.90;;;;;;5073520;28;20715;-60
2023/02/23 05:40:23;;;;;;;4.32;2.30;;;10.40;99.90;;;;;;5074594;28;20428;-58
2023/02/23 05:42:52;;;;;;;5.43;3.13;;;10.30;99.90;;;;;;5074268;28;20423;-57
2023/02/23 05:45:19;;;;;;;3.35;2.30;;;10.30;99.90;;;;;;5074868;28;20866;-58
2023/02/23 05:47:46;;;;;;;4.07;2.83;;;10.20;99.90;;;;;;5074376;28;20435;-58
2023/02/23 05:50:13;;;;;;;3.60;2.80;;;10.20;99.90;;;;;;5090526;28;20757;-57
2023/02/23 05:52:41;;;;;;;4.90;3.40;;;10.10;99.90;;;;;;5094097;28;20421;-58
2023/02/23 05:55:11;;;;;;;5.28;3.83;;;10.00;99.90;;;;;;5094115;28;20474;-57
2023/02/23 05:57:38;;;;;;;4.18;3.40;;;10.00;99.90;;;;;;5094466;28;20445;-58
2023/02/23 06:00:09;;;;;;;6.32;4.20;;;10.00;99.90;;;;;;5093299;28;20430;-59
2023/02/23 06:02:36;;;;;;;4.87;3.03;;;10.10;99.90;;;;;;5093877;28;20817;-57
2023/02/23 06:05:04;;;;;;;5.13;3.53;;;10.10;99.90;;;;;;5094012;28;20457;-58
2023/02/23 06:07:32;;;;;;;5.32;4.10;;;10.20;99.90;;;;;;5093227;28;20414;-57
2023/02/23 06:09:59;;;;;;;5.30;3.88;;;10.20;99.90;;;;;;5093901;28;20916;-60
2023/02/23 06:12:26;;;;;;;5.10;4.22;;;10.20;99.90;;;;;;5094297;28;20418;-58
2023/02/23 06:14:53;;;;;;;7.47;6.03;;;10.10;99.90;;;;;;5094241;28;20544;-57
2023/02/23 06:17:21;;;;;;;8.50;5.82;;;10.10;99.90;;;;;;5093316;28;20429;-57
2023/02/23 06:19:48;;;;;;;6.60;5.90;;;10.00;99.90;;;;;;5091775;28;20418;-55
2023/02/23 06:22:16;;;;;;;7.05;6.03;;;10.00;99.90;;;;;;5089357;28;20825;-56
2023/02/23 06:24:43;;;;;;;6.70;5.47;;;10.00;99.90;;;;;;5091219;28;20434;-58
2023/02/23 06:27:10;;;;;;;5.97;3.83;;;10.10;99.90;;;;;;5090665;28;20908;-59
2023/02/23 06:29:38;;;;;;;5.45;4.05;;;10.10;99.90;;;;;;5093078;28;20425;-58
2023/02/23 06:32:06;;;;;;;5.40;3.90;;;10.20;99.90;;;;;;5092548;28;20417;-58
2023/02/23 06:34:34;;;;;;;5.82;3.72;;;10.30;99.90;;;;;;5092541;28;20433;-57
2023/02/23 06:37:01;;;;;;;5.20;4.67;;;10.30;99.90;;;;;;5092304;28;20734;-58
2023/02/23 06:39:28;;;;;;;6.82;5.15;;;10.30;99.90;;;;;;5093763;28;20513;-58
2023/02/23 06:41:55;;;;;;;9.00;5.75;;;10.30;99.90;;;;;;5093425;28;20425;-59
2023/02/23 06:44:22;;;;;;;7.57;5.80;;;10.40;99.90;;;;;;5093263;28;20429;-59
2023/02/23 06:46:49;;;;;;;6.88;5.05;;;10.40;99.90;;;;;;5093644;28;20730;-58
2023/02/23 06:49:16;;;;;;;6.00;3.92;;;10.40;99.90;;;;;;5092622;28;20425;-59
2023/02/23 06:51:46;;;;;;;4.00;2.92;;;10.30;99.90;;;;;;5092172;28;20405;-59
2023/02/23 06:54:13;;;;;;;6.30;3.13;;;10.20;99.90;;;;;;5091836;28;20417;-58
2023/02/23 06:56:40;;;;;;;5.35;2.30;;;10.10;99.90;;;;;;5092623;28;20437;-59
2023/02/23 06:59:07;;;;;;;5.03;2.00;;;10.00;99.90;;;;;;5091894;28;20422;-59
2023/02/23 07:01:34;;;;;;;4.88;2.10;;;10.00;99.90;;;;;;5083032;28;20778;-59
2023/02/23 07:04:01;;;;;;;4.30;1.73;;;10.10;99.90;;;;;;5085836;28;20422;-59
2023/02/23 07:06:28;;;;;;;4.82;2.00;;;10.10;99.90;;;;;;5077257;28;20785;-59
2023/02/23 07:08:59;;;;;;;3.20;1.70;;;10.20;99.90;;;;;;5082569;28;20830;-60
2023/02/23 07:11:26;;;;;;;3.92;1.70;;;10.20;99.90;;;;;;5078719;28;20446;-57
2023/02/23 07:13:53;;;;;;;3.42;1.90;;;10.20;99.90;;;;;;5091583;28;20417;-59
2023/02/23 07:16:20;;;;;;;4.57;2.00;;;10.20;99.90;;;;;;5080322;28;20887;-58
2023/02/23 07:18:47;;;;;;;4.00;2.17;;;10.10;99.90;;;;;;5086072;28;20419;-59
2023/02/23 07:21:14;;;;;;;4.93;2.92;;;9.90;99.90;;;;;;5094005;28;20425;-59
2023/02/23 07:23:41;;;;;;;3.43;2.30;;;9.80;99.90;;;;;;5077357;28;20455;-59
2023/02/23 07:26:14;;;;;;;3.73;2.70;;;9.70;99.90;;;;;;5089736;28;20438;-59
2023/02/23 07:28:42;;;;;;;3.25;2.00;;;9.80;99.90;;;;;;5082755;28;20445;-59
2023/02/23 07:31:09;;;;;;;3.45;2.20;;;9.80;99.90;;;;;;5095648;28;20442;-57
2023/02/23 07:33:36;;;;;;;4.38;2.50;;;9.80;99.90;;;;;;5077634;28;20420;-57
2023/02/23 07:36:04;;;;;;;4.75;2.65;;;9.80;99.90;;;;;;5077953;28;20425;-55
2023/02/23 07:38:31;;;;;;;5.85;2.40;;;9.80;99.90;;;;;;5086169;28;20424;-57
2023/02/23 07:40:58;;;;;;;5.75;2.80;;;9.80;99.90;;;;;;5086136;28;20430;-57
2023/02/23 07:43:26;;;;;;;5.20;2.40;;;9.80;99.90;;;;;;5079631;28;20420;-56
2023/02/23 07:45:54;;;;;;;3.78;2.65;;;9.90;99.90;;;;;;5089975;28;20429;-57
2023/02/23 07:48:21;;;;;;;4.90;3.10;;;9.90;99.90;;;;;;5080090;28;20714;-56
2023/02/23 07:50:48;;;;;;;3.65;2.30;;;10.00;99.90;;;;;;5096184;28;20425;-54
2023/02/23 07:53:15;;;;;;;4.55;2.30;;;10.00;99.90;;;;;;5082053;28;20498;-55
2023/02/23 07:55:42;;;;;;;3.10;2.10;;;10.10;99.90;;;;;;5088941;28;20438;-57
2023/02/23 07:58:12;;;;;;;3.80;2.40;;;10.20;99.90;;;;;;5090919;28;20431;-57
2023/02/23 08:00:42;;;;;;;3.25;2.10;;;10.20;99.90;;;;;;5081751;28;20493;-56
2023/02/23 08:03:09;;;;;;;5.60;2.60;;;10.20;99.90;;;;;;5087929;28;20449;-55
2023/02/23 08:05:38;;;;;;;3.42;2.35;;;10.30;99.90;;;;;;5076709;28;20518;-56
2023/02/23 08:08:06;;;;;;;2.90;1.70;;;10.30;99.90;;;;;;5083769;28;20435;-58
2023/02/23 08:10:34;;;;;;;2.47;2.10;;;10.30;99.90;;;;;;5081814;28;20453;-54
2023/02/23 08:13:01;;;;;;;4.47;2.75;;;10.50;99.90;;;;;;5080398;28;20545;-56
2023/02/23 08:15:29;;;;;;;5.63;2.30;;;10.60;99.90;;;;;;5088599;28;20437;-53
2023/02/23 08:17:59;;;;;;;7.32;2.20;;;10.70;99.90;;;;;;5076949;28;20470;-55
2023/02/23 08:20:26;;;;;;;4.30;1.70;;;10.90;99.90;;;;;;5086569;28;20423;-54
2023/02/23 08:22:55;;;;;;;2.58;1.55;;;11.10;99.90;;;;;;5081657;28;20422;-54
2023/02/23 08:25:23;;;;;;;4.90;2.10;;;11.30;99.90;;;;;;5077269;28;20435;-55
2023/02/23 08:27:52;;;;;;;3.03;1.80;;;11.30;99.90;;;;;;5087544;28;20421;-55
2023/02/23 08:30:20;;;;;;;3.90;2.35;;;11.20;99.90;;;;;;5078212;28;20899;-57
2023/02/23 08:32:47;;;;;;;3.33;1.80;;;11.20;99.90;;;;;;5084761;28;20904;-51
2023/02/23 08:35:17;;;;;;;4.40;1.60;;;11.10;99.90;;;;;;5087706;28;20437;-55
2023/02/23 08:37:45;;;;;;;3.97;1.90;;;11.10;99.90;;;;;;5076696;28;20431;-54
2023/02/23 08:40:14;;;;;;;3.65;2.00;;;11.20;99.90;;;;;;5089367;28;20831;-54
2023/02/23 08:42:41;;;;;;;3.92;1.98;;;11.10;99.90;;;;;;5083712;28;20846;-53
2023/02/23 08:45:10;;;;;;;4.43;1.90;;;11.10;99.90;;;;;;5093315;28;20430;-55
2023/02/23 08:47:37;;;;;;;2.60;1.90;;;11.10;99.90;;;;;;5077809;28;20427;-53
2023/02/23 08:50:05;;;;;;;3.80;1.45;;;11.20;99.90;;;;;;5077711;28;20426;-52
2023/02/23 08:52:33;;;;;;;3.20;1.50;;;11.20;99.90;;;;;;5086100;28;20481;-54
2023/02/23 08:55:00;;;;;;;2.90;1.60;;;11.20;99.90;;;;;;5083012;28;20727;-55
2023/02/23 08:57:27;;;;;;;3.53;1.63;;;11.20;99.90;;;;;;5084980;28;20436;-52
2023/02/23 08:59:54;;;;;;;3.80;1.60;;;11.30;99.90;;;;;;5071728;28;20427;-50
2023/02/23 09:02:22;;;;;;;2.30;1.45;;;11.40;99.90;;;;;;5084162;28;20859;-54
2023/02/23 09:04:52;;;;;;;3.38;1.80;;;11.50;99.90;;;;;;5079512;28;20945;-54
2023/02/23 09:07:21;;;;;;;2.22;1.33;;;11.50;99.90;;;;;;5078494;28;20764;-53
2023/02/23 09:09:54;;;;;;;3.22;1.40;;;11.50;99.90;;;;;;5091728;28;20856;-54
2023/02/23 09:12:21;;;;;;;2.10;1.30;;;11.50;99.90;;;;;;5087307;28;20575;-55
2023/02/23 09:14:48;;;;;;;2.78;1.70;;;11.50;99.90;;;;;;5082313;28;20429;-54
2023/02/23 09:17:15;;;;;;;3.67;1.50;;;11.60;99.90;;;;;;5093228;28;20844;-54
2023/02/23 09:19:42;;;;;;;2.60;1.40;;;11.60;99.90;;;;;;5075504;28;20428;-54
2023/02/23 09:22:09;;;;;;;3.63;1.40;;;11.50;99.90;;;;;;5087950;28;20729;-52
2023/02/23 09:24:37;;;;;;;3.10;1.20;;;11.60;99.90;;;;;;5079621;28;20433;-53
2023/02/23 09:27:06;;;;;;;5.55;1.30;;;11.60;99.90;;;;;;5080770;28;20423;-56
2023/02/23 09:29:35;;;;;;;2.40;1.30;;;11.70;99.90;;;;;;5087745;28;20513;-54
2023/02/23 09:32:03;;;;;;;2.85;1.40;;;11.70;99.90;;;;;;5074654;28;20409;-53
2023/02/23 09:34:31;;;;;;;4.00;2.00;;;11.60;99.90;;;;;;5083869;28;20434;-55
2023/02/23 09:36:58;;;;;;;2.60;1.30;;;11.70;99.90;;;;;;5081892;28;20426;-53
2023/02/23 09:39:25;;;;;;;2.67;1.25;;;11.90;99.90;;;;;;5077709;28;20442;-52
2023/02/23 09:42:03;;;;;;;2.87;1.20;;;11.90;99.90;;;;;;5088554;28;20422;-52
2023/02/23 09:44:46;;;;;;;1.70;1.10;;;12.00;99.90;;;;;;5081680;28;20500;-54
2023/02/23 09:47:31;;;;;;;3.90;1.40;;;12.00;99.90;;;;;;5092634;28;20543;-54
2023/02/23 09:50:00;;;;;;;2.10;1.10;;;12.00;99.90;;;;;;5076435;28;20438;-53
2023/02/23 09:52:38;;;;;;;3.80;1.20;;;12.00;99.90;;;;;;5084911;28;20419;-54
2023/02/23 09:55:06;;;;;;;3.50;1.05;;;12.00;99.90;;;;;;5084491;28;20433;-54
2023/02/23 09:57:37;;;;;;;1.92;1.20;;;12.10;99.90;;;;;;5088726;28;20430;-55
2023/02/23 10:00:14;;;;;;;2.38;1.00;;;12.30;99.90;;;;;;5074465;28;20414;-55
2023/02/23 10:03:04;;;;;;;2.40;1.13;;;12.60;99.90;;;;;;5081919;28;20416;-52
2023/02/23 10:05:37;;;;;;;2.72;1.30;;;12.80;99.90;;;;;;5087352;28;20457;-55
2023/02/23 10:08:08;;;;;;;3.03;1.10;;;13.00;99.90;;;;;;5074869;28;20410;-53
2023/02/23 10:10:42;;;;;;;2.25;1.15;;;13.10;99.90;;;;;;5083995;28;20864;-55
2023/02/23 10:13:15;;;;;;;1.80;1.00;;;13.20;99.90;;;;;;5084883;28;20422;-55
2023/02/23 10:15:49;;;;;;;2.70;0.90;;;13.30;99.90;;;;;;5074168;28;20442;-56
2023/02/23 10:18:28;;;;;;;1.50;0.90;;;13.30;99.90;;;;;;5086573;28;20436;-52
2023/02/23 10:21:03;;;;;;;5.22;3.67;;;13.20;99.90;;;;;;5081772;28;20524;-54
2023/02/23 10:23:34;;;;;;;3.70;3.20;;;13.20;99.90;;;;;;5075795;28;20430;-54
2023/02/23 10:26:03;;;;;;;5.50;3.65;;;13.20;99.90;;;;;;5089033;28;20435;-55
2023/02/23 10:28:34;;;;;;;6.75;3.00;;;13.40;99.90;;;;;;5078244;28;20699;-53
2023/02/23 10:31:17;;;;;;;6.15;2.78;;;13.60;99.90;;;;;;5076339;28;20743;-56
2023/02/23 10:33:44;;;;;;;4.20;2.33;;;13.70;99.90;;;;;;5087536;28;20418;-55
2023/02/23 10:36:18;;;;;;;4.27;1.93;;;13.70;99.90;;;;;;5085130;28;20768;-51
2023/02/23 10:38:45;;;;;;;2.50;1.27;;;13.70;99.90;;;;;;5078757;28;20422;-52
2023/02/23 10:41:13;;;;;;;1.55;0.70;;;13.60;99.90;;;;;;5088930;28;20417;-51
2023/02/23 10:43:40;;;;;;;2.08;0.80;;;13.50;99.90;;;;;;5073443;28;20419;-52
2023/02/23 10:46:19;;;;;;;2.50;0.80;;;13.40;99.90;;;;;;5086952;28;20449;-53
2023/02/23 10:48:48;;;;;;;1.90;0.80;;;13.30;99.90;;;;;;5082244;28;20437;-52
2023/02/23 10:51:20;;;;;;;1.38;0.80;;;13.30;99.90;;;;;;5080334;28;20502;-52
2023/02/23 10:53:47;;;;;;;1.40;0.70;;;13.30;99.90;;;;;;5092518;28;20426;-53
2023/02/23 10:56:17;;;;;;;3.38;0.70;;;13.50;99.90;;;;;;5082597;28;20730;-55
2023/02/23 10:58:46;;;;;;;4.30;1.60;;;13.70;99.90;;;;;;5084500;28;20439;-53
2023/02/23 11:01:15;;;;;;;3.33;1.60;;;13.80;99.90;;;;;;5089388;28;20520;-55
2023/02/23 11:03:46;;;;;;;3.95;2.00;;;13.80;99.90;;;;;;5078623;28;20431;-55
2023/02/23 11:06:30;;;;;;;3.90;1.90;;;13.70;99.90;;;;;;5090535;28;20442;-54
2023/02/23 11:08:57;;;;;;;3.50;2.10;;;13.70;99.90;;;;;;5085297;28;20425;-56
2023/02/23 11:11:27;;;;;;;3.88;1.70;;;13.70;99.90;;;;;;5080528;28;20423;-55
2023/02/23 11:13:55;;;;;;;3.63;1.40;;;13.80;99.90;;;;;;5094149;28;20421;-54
2023/02/23 11:16:26;;;;;;;5.70;1.70;;;13.80;99.90;;;;;;5088909;28;20427;-54
2023/02/23 11:18:56;;;;;;;3.90;1.50;;;13.90;99.90;;;;;;5083412;28;20436;-55
2023/02/23 11:21:26;;;;;;;3.28;1.90;;;14.00;99.90;;;;;;5080170;28;20434;-52
2023/02/23 11:23:55;;;;;;;5.70;1.83;;;14.10;99.90;;;;;;5091729;28;20413;-56
2023/02/23 11:26:29;;;;;;;6.70;4.35;;;14.20;99.90;;;;;;5080550;28;20444;-53
2023/02/23 11:28:59;;;;;;;3.22;1.40;;;14.40;99.90;;;;;;5095345;28;20834;-54
2023/02/23 11:31:33;;;;;;;2.83;1.80;;;14.40;99.90;;;;;;5078724;28;20407;-55
2023/02/23 11:34:02;;;;;;;3.63;1.70;;;14.10;99.90;;;;;;5093955;28;20422;-54
2023/02/23 11:36:31;;;;;;;5.13;2.97;;;13.90;99.90;;;;;;5085745;28;21062;-55
2023/02/23 11:39:07;;;;;;;5.03;3.20;;;13.90;99.90;;;;;;5090351;28;20522;-56
2023/02/23 11:41:36;;;;;;;8.43;2.83;;;14.10;99.90;;;;;;5076512;28;20455;-54
2023/02/23 11:44:03;;;;;;;5.47;3.13;;;14.10;99.90;;;;;;5075304;28;20486;-54
2023/02/23 11:46:36;;;;;;;3.40;2.67;;;14.00;99.90;;;;;;5088750;28;20627;-55
2023/02/23 11:49:07;;;;;;;7.40;3.40;;;14.00;99.90;;;;;;5079490;28;20502;-54
2023/02/23 11:51:36;;;;;;;5.72;3.10;;;14.00;99.90;;;;;;5087446;28;20418;-54
2023/02/23 11:54:08;;;;;;;5.25;3.00;;;13.90;99.90;;;;;;5077179;28;20880;-56
2023/02/23 11:56:36;;;;;;;6.53;3.07;;;14.10;99.90;;;;;;5087533;28;20635;-54
2023/02/23 11:59:07;;;;;;;4.43;2.40;;;14.20;99.90;;;;;;5091628;28;20456;-56
2023/02/23 12:01:44;;;;;;;3.92;2.17;;;14.40;99.90;;;;;;5075667;28;20450;-55
2023/02/23 12:04:29;;;;;;;4.68;2.05;;;14.60;99.90;;;;;;5077755;28;20530;-51
2023/02/23 12:07:12;;;;;;;3.73;1.97;;;14.70;99.90;;;;;;5093014;28;20434;-56
2023/02/23 12:09:41;;;;;;;3.97;1.50;;;14.80;99.90;;;;;;5077055;28;20438;-55
2023/02/23 12:12:14;;;;;;;3.65;1.58;;;14.80;99.90;;;;;;5089927;28;20789;-57
2023/02/23 12:14:48;;;;;;;2.72;1.30;;;14.60;99.90;;;;;;5080984;28;20468;-54
2023/02/23 12:17:23;;;;;;;3.60;1.30;;;14.40;99.90;;;;;;5079689;28;20862;-55
2023/02/23 12:19:57;;;;;;;2.10;1.23;;;14.30;99.90;;;;;;5090948;28;20422;-55
2023/02/23 12:22:29;;;;;;;2.77;1.27;;;14.20;99.90;;;;;;5085778;28;20420;-53
2023/02/23 12:25:01;;;;;;;2.67;1.30;;;14.10;99.90;;;;;;5082914;28;20457;-53
2023/02/23 12:27:34;;;;;;;3.28;1.20;;;14.10;99.90;;;;;;5078330;28;20427;-55
2023/02/23 12:30:07;;;;;;;4.10;1.20;;;14.10;99.90;;;;;;5089092;28;20472;-55
2023/02/23 12:32:44;;;;;;;2.75;1.10;;;14.20;99.90;;;;;;5080828;28;20908;-54
2023/02/23 12:35:16;;;;;;;1.80;1.10;;;14.20;99.90;;;;;;5080163;28;20435;-56
2023/02/23 12:37:47;;;;;;;4.38;1.20;;;14.10;99.90;;;;;;5077737;28;20440;-61
2023/02/23 12:40:17;;;;;;;2.47;1.20;;;13.90;99.90;;;;;;5087909;28;20423;-56
2023/02/23 12:42:56;;;;;;;1.88;1.02;;;13.80;99.90;;;;;;5083427;28;20845;-54
2023/02/23 12:45:29;;;;;;;3.47;1.20;;;13.80;99.90;;;;;;5079108;28;20423;-57
2023/02/23 12:48:04;;;;;;;2.10;1.10;;;13.80;99.90;;;;;;5089138;28;20438;-56
2023/02/23 12:50:34;;;;;;;2.33;1.10;;;13.90;99.90;;;;;;5078539;28;20421;-56
2023/02/23 12:53:11;;;;;;;3.05;1.30;;;13.90;99.90;;;;;;5079762;28;20423;-55
2023/02/23 12:55:47;;;;;;;1.80;1.00;;;14.00;99.90;;;;;;5085788;28;20438;-57
2023/02/23 12:58:23;;;;;;;2.83;1.00;;;14.00;99.90;;;;;;5088200;28;20438;-54
2023/02/23 13:00:58;;;;;;;1.95;0.90;;;14.00;99.90;;;;;;5082939;28;20457;-54
2023/02/23 13:03:52;;;;;;;1.52;0.90;;;14.20;99.90;;;;;;5077715;28;20763;-56
2023/02/23 13:06:29;;;;;;;2.80;0.80;;;14.30;99.90;;;;;;5077396;28;20425;-56
2023/02/23 13:09:12;;;;;;;2.10;0.80;;;14.40;99.90;;;;;;5083815;28;20454;-57
2023/02/23 13:11:52;;;;;;;1.70;0.80;;;14.50;99.90;;;;;;5082981;28;20737;-56
2023/02/23 13:14:26;;;;;;;2.00;0.80;;;14.50;99.90;;;;;;5073839;28;20427;-56
2023/02/23 13:16:57;;;;;;;3.60;0.80;;;14.40;99.90;;;;;;5080160;28;20422;-57
2023/02/23 13:19:29;;;;;;;2.40;0.90;;;14.30;99.90;;;;;;5082912;28;20864;-57
2023/02/23 13:22:04;;;;;;;1.73;0.80;;;14.10;99.90;;;;;;5085976;28;20553;-56
2023/02/23 13:24:37;;;;;;;2.03;1.00;;;13.90;99.90;;;;;;5073296;28;20505;-57
2023/02/23 13:27:16;;;;;;;3.10;1.20;;;13.90;99.90;;;;;;5075036;28;20419;-56
2023/02/23 13:29:44;;;;;;;1.60;1.10;;;13.90;99.90;;;;;;5092037;28;20491;-58
2023/02/23 13:32:13;;;;;;;3.65;1.00;;;13.90;99.90;;;;;;5091363;28;20425;-58
2023/02/23 13:34:45;;;;;;;3.17;1.60;;;13.80;99.90;;;;;;5093487;28;20711;-56
2023/02/23 13:37:16;;;;;;;2.50;1.10;;;13.80;99.90;;;;;;5081815;28;20518;-60
2023/02/23 13:40:00;;;;;;;3.10;1.10;;;13.70;99.90;;;;;;5082172;28;20433;-60
2023/02/23 13:42:39;;;;;;;3.10;1.33;;;13.80;99.90;;;;;;5077363;28;20433;-60
2023/02/23 13:45:37;;;;;;;16.80;12.75;;;13.70;99.90;;;;;;5078768;28;20435;-60
2023/02/23 13:48:13;;;;;;;2.17;1.60;;;13.70;99.90;;;;;;5077279;28;21457;-59
2023/02/23 13:50:47;;;;;;;4.40;2.63;;;13.70;99.90;;;;;;5086005;28;20738;-59
2023/02/23 13:53:36;;;;;;;6.20;2.73;;;13.70;99.90;;;;;;5074366;28;20473;-61
2023/02/23 13:56:07;;;;;;;2.20;1.40;;;13.60;99.90;;;;;;5076213;28;20446;-59
2023/02/23 13:58:35;;;;;;;4.20;1.40;;;13.60;99.90;;;;;;5079228;28;20442;-58
2023/02/23 14:01:08;;;;;;;3.50;1.35;;;13.60;99.90;;;;;;5079079;28;20879;-59
2023/02/23 14:03:42;;;;;;;2.80;1.50;;;13.60;99.90;;;;;;5082065;28;20772;-60
2023/02/23 14:06:14;;;;;;;3.53;1.93;;;13.60;99.90;;;;;;5083534;28;20431;-59
2023/02/23 14:08:44;;;;;;;2.47;1.30;;;13.50;99.90;;;;;;5078974;28;20429;-59
2023/02/23 14:11:27;;;;;;;2.60;1.60;;;13.40;99.90;;;;;;5078422;28;20509;-59
2023/02/23 14:14:00;;;;;;;2.40;1.33;;;13.40;99.90;;;;;;5086440;28;20459;-59
2023/02/23 14:16:27;;;;;;;3.28;1.42;;;13.40;99.90;;;;;;5085685;28;20851;-63
2023/02/23 14:19:04;;;;;;;2.85;1.60;;;13.30;99.90;;;;;;5077704;28;20440;-58
2023/02/23 14:21:35;;;;;;;2.97;1.35;;;13.30;99.90;;;;;;5084942;28;20429;-58
2023/02/23 14:24:19;;;;;;;1.85;1.20;;;13.20;99.90;;;;;;5084843;28;20838;-59
2023/02/23 14:27:25;;;;;;;1.70;1.10;;;13.20;99.90;;;;;;5082635;28;20429;-58